sensor_id;sensor_type;location;lat;lon;timestamp;temperature;humidity
26909;DHT22;14477;51.038;4.588;2023-03-01T00:00:39;3.40;74.40
26909;DHT22;14477;51.038;4.588;2023-03-01T00:03:05;3.30;74.40
26909;DHT22;14477;51.038;4.588;2023-03-01T00:05:31;3.30;74.60
26909;DHT22;14477;51.038;4.588;2023-03-01T00:07:57;3.30;74.60
26909;DHT22;14477;51.038;4.588;2023-03-01T00:10:23;3.30;74.70
26909;DHT22;14477;51.038;4.588;2023-03-01T00:12:49;3.20;74.70
26909;DHT22;14477;51.038;4.588;2023-03-01T00:15:15;3.20;74.80
26909;DHT22;14477;51.038;4.588;2023-03-01T00:17:41;3.20;74.80
26909;DHT22;14477;51.038;4.588;2023-03-01T00:20:07;3.20;74.90
26909;DHT22;14477;51.038;4.588;2023-03-01T00:22:36;3.20;75.00
26909;DHT22;14477;51.038;4.588;2023-03-01T00:25:03;3.10;75.00
26909;DHT22;14477;51.038;4.588;2023-03-01T00:27:28;3.10;74.90
26909;DHT22;14477;51.038;4.588;2023-03-01T00:29:54;3.00;74.90
26909;DHT22;14477;51.038;4.588;2023-03-01T00:32:20;3.10;75.00
26909;DHT22;14477;51.038;4.588;2023-03-01T00:34:46;3.00;75.00
26909;DHT22;14477;51.038;4.588;2023-03-01T00:37:20;3.00;75.00
26909;DHT22;14477;51.038;4.588;2023-03-01T00:39:47;3.00;75.10
26909;DHT22;14477;51.038;4.588;2023-03-01T00:42:12;3.00;75.20
26909;DHT22;14477;51.038;4.588;2023-03-01T00:44:38;2.90;75.20
26909;DHT22;14477;51.038;4.588;2023-03-01T00:47:04;2.90;75.30
26909;DHT22;14477;51.038;4.588;2023-03-01T00:49:30;2.80;75.30
26909;DHT22;14477;51.038;4.588;2023-03-01T00:51:55;2.80;75.40
26909;DHT22;14477;51.038;4.588;2023-03-01T00:54:21;2.80;75.50
26909;DHT22;14477;51.038;4.588;2023-03-01T00:56:47;2.80;75.60
26909;DHT22;14477;51.038;4.588;2023-03-01T00:59:13;2.80;75.80
26909;DHT22;14477;51.038;4.588;2023-03-01T01:01:39;2.80;75.90
26909;DHT22;14477;51.038;4.588;2023-03-01T01:04:08;2.80;76.80
26909;DHT22;14477;51.038;4.588;2023-03-01T01:06:42;2.70;76.00
26909;DHT22;14477;51.038;4.588;2023-03-01T01:09:11;2.70;76.10
26909;DHT22;14477;51.038;4.588;2023-03-01T01:11:46;2.70;76.10
26909;DHT22;14477;51.038;4.588;2023-03-01T01:14:12;2.70;76.60
26909;DHT22;14477;51.038;4.588;2023-03-01T01:16:38;2.60;76.20
26909;DHT22;14477;51.038;4.588;2023-03-01T01:19:04;2.60;76.30
26909;DHT22;14477;51.038;4.588;2023-03-01T01:21:31;2.60;76.30
26909;DHT22;14477;51.038;4.588;2023-03-01T01:23:57;2.60;76.30
26909;DHT22;14477;51.038;4.588;2023-03-01T01:26:25;2.60;76.30
26909;DHT22;14477;51.038;4.588;2023-03-01T01:28:51;2.60;76.30
26909;DHT22;14477;51.038;4.588;2023-03-01T01:31:19;2.60;76.40
26909;DHT22;14477;51.038;4.588;2023-03-01T01:33:45;2.60;76.40
26909;DHT22;14477;51.038;4.588;2023-03-01T01:36:11;2.50;76.40
26909;DHT22;14477;51.038;4.588;2023-03-01T01:38:38;2.50;76.40
26909;DHT22;14477;51.038;4.588;2023-03-01T01:41:05;2.50;76.50
26909;DHT22;14477;51.038;4.588;2023-03-01T01:43:36;2.50;76.60
26909;DHT22;14477;51.038;4.588;2023-03-01T01:49:05;2.40;76.40
26909;DHT22;14477;51.038;4.588;2023-03-01T01:51:39;2.40;76.50
26909;DHT22;14477;51.038;4.588;2023-03-01T01:54:16;2.30;76.40
26909;DHT22;14477;51.038;4.588;2023-03-01T01:56:48;2.30;76.40
26909;DHT22;14477;51.038;4.588;2023-03-01T01:59:15;2.30;76.50
26909;DHT22;14477;51.038;4.588;2023-03-01T02:01:41;2.20;76.50
26909;DHT22;14477;51.038;4.588;2023-03-01T02:04:08;2.20;76.70
26909;DHT22;14477;51.038;4.588;2023-03-01T02:06:41;2.20;76.70
26909;DHT22;14477;51.038;4.588;2023-03-01T02:09:14;2.10;76.70
26909;DHT22;14477;51.038;4.588;2023-03-01T02:11:40;2.10;76.70
26909;DHT22;14477;51.038;4.588;2023-03-01T02:14:06;2.10;76.70
26909;DHT22;14477;51.038;4.588;2023-03-01T02:16:32;2.10;76.80
26909;DHT22;14477;51.038;4.588;2023-03-01T02:18:58;2.00;76.70
26909;DHT22;14477;51.038;4.588;2023-03-01T02:21:38;2.00;76.80
26909;DHT22;14477;51.038;4.588;2023-03-01T02:27:00;1.90;76.90
26909;DHT22;14477;51.038;4.588;2023-03-01T02:29:27;1.90;76.90
26909;DHT22;14477;51.038;4.588;2023-03-01T02:31:55;1.80;76.90
26909;DHT22;14477;51.038;4.588;2023-03-01T02:34:23;1.80;77.00
26909;DHT22;14477;51.038;4.588;2023-03-01T02:37:04;1.80;77.10
26909;DHT22;14477;51.038;4.588;2023-03-01T02:39:45;1.70;77.10
26909;DHT22;14477;51.038;4.588;2023-03-01T02:42:14;1.70;77.20
26909;DHT22;14477;51.038;4.588;2023-03-01T02:44:42;1.70;77.20
26909;DHT22;14477;51.038;4.588;2023-03-01T02:47:08;1.60;77.20
26909;DHT22;14477;51.038;4.588;2023-03-01T02:49:36;1.60;77.30
26909;DHT22;14477;51.038;4.588;2023-03-01T02:57:25;1.50;77.50
26909;DHT22;14477;51.038;4.588;2023-03-01T02:59:57;1.50;77.60
26909;DHT22;14477;51.038;4.588;2023-03-01T03:02:28;1.50;77.70
26909;DHT22;14477;51.038;4.588;2023-03-01T03:05:11;1.40;77.70
26909;DHT22;14477;51.038;4.588;2023-03-01T03:07:40;1.50;77.70
26909;DHT22;14477;51.038;4.588;2023-03-01T03:10:08;1.40;77.90
26909;DHT22;14477;51.038;4.588;2023-03-01T03:12:35;1.40;77.90
26909;DHT22;14477;51.038;4.588;2023-03-01T03:15:00;1.40;77.90
26909;DHT22;14477;51.038;4.588;2023-03-01T03:17:26;1.40;78.00
26909;DHT22;14477;51.038;4.588;2023-03-01T03:19:52;1.40;78.10
26909;DHT22;14477;51.038;4.588;2023-03-01T03:22:17;1.40;78.20
26909;DHT22;14477;51.038;4.588;2023-03-01T03:24:43;1.30;78.20
26909;DHT22;14477;51.038;4.588;2023-03-01T03:27:09;1.30;78.20
26909;DHT22;14477;51.038;4.588;2023-03-01T03:29:35;1.40;78.40
26909;DHT22;14477;51.038;4.588;2023-03-01T03:32:01;1.30;78.40
26909;DHT22;14477;51.038;4.588;2023-03-01T03:34:26;1.30;78.40
26909;DHT22;14477;51.038;4.588;2023-03-01T03:36:56;1.30;78.40
26909;DHT22;14477;51.038;4.588;2023-03-01T03:39:23;1.30;78.50
26909;DHT22;14477;51.038;4.588;2023-03-01T03:41:49;1.30;78.50
26909;DHT22;14477;51.038;4.588;2023-03-01T03:44:15;1.30;78.50
26909;DHT22;14477;51.038;4.588;2023-03-01T03:46:40;1.20;79.30
26909;DHT22;14477;51.038;4.588;2023-03-01T03:49:06;1.20;78.60
26909;DHT22;14477;51.038;4.588;2023-03-01T03:51:32;1.20;78.60
26909;DHT22;14477;51.038;4.588;2023-03-01T03:53:57;1.20;78.70
26909;DHT22;14477;51.038;4.588;2023-03-01T03:56:23;1.10;78.70
26909;DHT22;14477;51.038;4.588;2023-03-01T03:58:52;1.10;78.80
26909;DHT22;14477;51.038;4.588;2023-03-01T04:01:18;1.10;78.90
26909;DHT22;14477;51.038;4.588;2023-03-01T04:03:44;1.10;78.90
26909;DHT22;14477;51.038;4.588;2023-03-01T04:06:13;1.10;78.90
26909;DHT22;14477;51.038;4.588;2023-03-01T04:08:40;1.10;78.90
26909;DHT22;14477;51.038;4.588;2023-03-01T04:11:06;1.10;79.00
26909;DHT22;14477;51.038;4.588;2023-03-01T04:13:52;1.10;78.90
26909;DHT22;14477;51.038;4.588;2023-03-01T04:16:18;1.00;78.90
26909;DHT22;14477;51.038;4.588;2023-03-01T04:18:44;1.00;78.90
26909;DHT22;14477;51.038;4.588;2023-03-01T04:21:10;1.00;78.90
26909;DHT22;14477;51.038;4.588;2023-03-01T04:23:37;1.00;79.00
26909;DHT22;14477;51.038;4.588;2023-03-01T04:26:03;0.90;79.00
26909;DHT22;14477;51.038;4.588;2023-03-01T04:28:38;0.90;79.00
26909;DHT22;14477;51.038;4.588;2023-03-01T04:31:12;0.90;79.10
26909;DHT22;14477;51.038;4.588;2023-03-01T04:34:08;0.90;79.20
26909;DHT22;14477;51.038;4.588;2023-03-01T04:36:33;0.80;79.20
26909;DHT22;14477;51.038;4.588;2023-03-01T04:39:00;0.80;79.10
26909;DHT22;14477;51.038;4.588;2023-03-01T04:41:38;0.80;79.10
26909;DHT22;14477;51.038;4.588;2023-03-01T04:44:09;0.80;79.20
26909;DHT22;14477;51.038;4.588;2023-03-01T04:46:35;0.70;79.20
26909;DHT22;14477;51.038;4.588;2023-03-01T04:49:02;0.70;79.30
26909;DHT22;14477;51.038;4.588;2023-03-01T04:51:28;0.70;79.30
26909;DHT22;14477;51.038;4.588;2023-03-01T04:53:54;0.70;79.30
26909;DHT22;14477;51.038;4.588;2023-03-01T04:56:20;0.70;79.30
26909;DHT22;14477;51.038;4.588;2023-03-01T04:58:48;0.70;79.40
26909;DHT22;14477;51.038;4.588;2023-03-01T05:01:19;0.60;79.40
26909;DHT22;14477;51.038;4.588;2023-03-01T05:03:50;0.60;79.50
26909;DHT22;14477;51.038;4.588;2023-03-01T05:06:17;0.60;79.50
26909;DHT22;14477;51.038;4.588;2023-03-01T05:08:44;0.60;79.60
26909;DHT22;14477;51.038;4.588;2023-03-01T05:11:10;0.50;79.50
26909;DHT22;14477;51.038;4.588;2023-03-01T05:13:38;0.50;79.50
26909;DHT22;14477;51.038;4.588;2023-03-01T05:16:05;0.50;79.60
26909;DHT22;14477;51.038;4.588;2023-03-01T05:18:32;0.50;79.70
26909;DHT22;14477;51.038;4.588;2023-03-01T05:23:31;0.50;79.80
26909;DHT22;14477;51.038;4.588;2023-03-01T05:26:01;0.50;79.80
26909;DHT22;14477;51.038;4.588;2023-03-01T05:28:27;0.40;80.00
26909;DHT22;14477;51.038;4.588;2023-03-01T05:30:55;0.50;80.00
26909;DHT22;14477;51.038;4.588;2023-03-01T05:33:20;0.40;80.00
26909;DHT22;14477;51.038;4.588;2023-03-01T05:35:48;0.50;80.00
26909;DHT22;14477;51.038;4.588;2023-03-01T05:38:15;0.40;80.00
26909;DHT22;14477;51.038;4.588;2023-03-01T05:40:44;0.40;80.00
26909;DHT22;14477;51.038;4.588;2023-03-01T05:43:12;0.40;80.00
26909;DHT22;14477;51.038;4.588;2023-03-01T05:45:39;0.40;80.00
26909;DHT22;14477;51.038;4.588;2023-03-01T05:48:06;0.40;80.00
26909;DHT22;14477;51.038;4.588;2023-03-01T05:50:35;0.30;80.00
26909;DHT22;14477;51.038;4.588;2023-03-01T05:53:15;0.30;80.10
26909;DHT22;14477;51.038;4.588;2023-03-01T05:55:42;0.30;80.20
26909;DHT22;14477;51.038;4.588;2023-03-01T05:58:13;0.30;80.10
26909;DHT22;14477;51.038;4.588;2023-03-01T06:00:43;0.30;80.30
26909;DHT22;14477;51.038;4.588;2023-03-01T06:03:11;0.30;80.30
26909;DHT22;14477;51.038;4.588;2023-03-01T06:05:38;0.30;80.30
26909;DHT22;14477;51.038;4.588;2023-03-01T06:08:05;0.30;80.30
26909;DHT22;14477;51.038;4.588;2023-03-01T06:10:30;0.30;80.30
26909;DHT22;14477;51.038;4.588;2023-03-01T06:12:56;0.30;80.30
26909;DHT22;14477;51.038;4.588;2023-03-01T06:15:23;0.30;80.30
26909;DHT22;14477;51.038;4.588;2023-03-01T06:17:49;0.20;80.30
26909;DHT22;14477;51.038;4.588;2023-03-01T06:20:20;0.20;80.30
26909;DHT22;14477;51.038;4.588;2023-03-01T06:22:47;0.20;80.40
26909;DHT22;14477;51.038;4.588;2023-03-01T06:25:14;0.20;80.50
26909;DHT22;14477;51.038;4.588;2023-03-01T06:27:41;0.20;80.60
26909;DHT22;14477;51.038;4.588;2023-03-01T06:30:13;0.20;80.60
26909;DHT22;14477;51.038;4.588;2023-03-01T06:32:40;0.20;80.60
26909;DHT22;14477;51.038;4.588;2023-03-01T06:35:10;0.20;80.70
26909;DHT22;14477;51.038;4.588;2023-03-01T06:37:36;0.20;80.60
26909;DHT22;14477;51.038;4.588;2023-03-01T06:40:05;0.20;80.70
26909;DHT22;14477;51.038;4.588;2023-03-01T06:42:38;0.20;80.90
26909;DHT22;14477;51.038;4.588;2023-03-01T06:45:04;0.20;80.90
26909;DHT22;14477;51.038;4.588;2023-03-01T06:47:31;0.20;80.90
26909;DHT22;14477;51.038;4.588;2023-03-01T06:49:59;0.20;80.90
26909;DHT22;14477;51.038;4.588;2023-03-01T06:52:25;0.20;80.90
26909;DHT22;14477;51.038;4.588;2023-03-01T06:54:51;0.20;81.10
26909;DHT22;14477;51.038;4.588;2023-03-01T06:57:16;0.20;81.20
26909;DHT22;14477;51.038;4.588;2023-03-01T06:59:42;0.30;81.40
26909;DHT22;14477;51.038;4.588;2023-03-01T07:02:12;0.30;81.40
26909;DHT22;14477;51.038;4.588;2023-03-01T07:04:38;0.30;81.60
26909;DHT22;14477;51.038;4.588;2023-03-01T07:07:05;0.40;81.80
26909;DHT22;14477;51.038;4.588;2023-03-01T07:09:31;0.40;81.90
26909;DHT22;14477;51.038;4.588;2023-03-01T07:11:57;0.40;82.00
26909;DHT22;14477;51.038;4.588;2023-03-01T07:14:23;0.50;82.30
26909;DHT22;14477;51.038;4.588;2023-03-01T07:16:55;0.60;82.70
26909;DHT22;14477;51.038;4.588;2023-03-01T07:19:21;0.70;83.40
26909;DHT22;14477;51.038;4.588;2023-03-01T07:21:48;0.90;84.80
26909;DHT22;14477;51.038;4.588;2023-03-01T07:24:14;1.10;84.50
26909;DHT22;14477;51.038;4.588;2023-03-01T07:26:39;1.30;85.10
26909;DHT22;14477;51.038;4.588;2023-03-01T07:29:07;1.60;85.70
26909;DHT22;14477;51.038;4.588;2023-03-01T07:31:33;1.90;86.20
26909;DHT22;14477;51.038;4.588;2023-03-01T07:33:59;2.30;86.30
26909;DHT22;14477;51.038;4.588;2023-03-01T07:36:25;2.60;86.00
26909;DHT22;14477;51.038;4.588;2023-03-01T07:38:51;2.80;85.80
26909;DHT22;14477;51.038;4.588;2023-03-01T07:41:17;3.10;85.90
26909;DHT22;14477;51.038;4.588;2023-03-01T07:43:43;3.30;85.90
26909;DHT22;14477;51.038;4.588;2023-03-01T07:46:09;3.60;86.40
26909;DHT22;14477;51.038;4.588;2023-03-01T07:48:35;3.90;87.40
26909;DHT22;14477;51.038;4.588;2023-03-01T07:51:02;4.20;88.80
26909;DHT22;14477;51.038;4.588;2023-03-01T07:53:28;4.70;90.00
26909;DHT22;14477;51.038;4.588;2023-03-01T07:56:11;5.20;90.50
26909;DHT22;14477;51.038;4.588;2023-03-01T07:58:38;5.70;90.10
26909;DHT22;14477;51.038;4.588;2023-03-01T08:01:06;6.20;91.00
26909;DHT22;14477;51.038;4.588;2023-03-01T08:03:33;6.80;91.00
26909;DHT22;14477;51.038;4.588;2023-03-01T08:06:00;7.30;91.10
26909;DHT22;14477;51.038;4.588;2023-03-01T08:08:26;7.80;91.10
26909;DHT22;14477;51.038;4.588;2023-03-01T08:10:52;8.20;91.00
26909;DHT22;14477;51.038;4.588;2023-03-01T08:13:17;8.70;90.90
26909;DHT22;14477;51.038;4.588;2023-03-01T08:15:48;9.10;90.90
26909;DHT22;14477;51.038;4.588;2023-03-01T08:18:18;9.50;90.50
26909;DHT22;14477;51.038;4.588;2023-03-01T08:20:44;9.80;90.40
26909;DHT22;14477;51.038;4.588;2023-03-01T08:23:10;10.20;90.40
26909;DHT22;14477;51.038;4.588;2023-03-01T08:25:36;10.60;90.30
26909;DHT22;14477;51.038;4.588;2023-03-01T08:28:02;10.90;90.20
26909;DHT22;14477;51.038;4.588;2023-03-01T08:30:28;11.20;89.80
26909;DHT22;14477;51.038;4.588;2023-03-01T08:32:54;11.40;89.70
26909;DHT22;14477;51.038;4.588;2023-03-01T08:35:20;11.60;88.50
26909;DHT22;14477;51.038;4.588;2023-03-01T08:37:46;11.80;88.00
26909;DHT22;14477;51.038;4.588;2023-03-01T08:40:12;11.80;86.50
26909;DHT22;14477;51.038;4.588;2023-03-01T08:42:40;11.80;85.20
26909;DHT22;14477;51.038;4.588;2023-03-01T08:45:07;11.70;85.40
26909;DHT22;14477;51.038;4.588;2023-03-01T08:47:33;11.60;84.60
26909;DHT22;14477;51.038;4.588;2023-03-01T08:49:59;11.50;84.60
26909;DHT22;14477;51.038;4.588;2023-03-01T08:52:26;11.40;85.00
26909;DHT22;14477;51.038;4.588;2023-03-01T08:54:52;11.30;84.80
26909;DHT22;14477;51.038;4.588;2023-03-01T08:57:18;11.30;84.60
26909;DHT22;14477;51.038;4.588;2023-03-01T08:59:44;11.20;85.00
26909;DHT22;14477;51.038;4.588;2023-03-01T09:02:16;11.20;84.80
26909;DHT22;14477;51.038;4.588;2023-03-01T09:04:42;11.10;85.00
26909;DHT22;14477;51.038;4.588;2023-03-01T09:07:08;11.20;86.90
26909;DHT22;14477;51.038;4.588;2023-03-01T09:09:35;11.30;87.70
26909;DHT22;14477;51.038;4.588;2023-03-01T09:12:01;11.60;88.60
26909;DHT22;14477;51.038;4.588;2023-03-01T09:14:27;11.80;88.80
26909;DHT22;14477;51.038;4.588;2023-03-01T09:16:54;12.10;89.60
26909;DHT22;14477;51.038;4.588;2023-03-01T09:19:19;12.40;88.90
26909;DHT22;14477;51.038;4.588;2023-03-01T09:21:45;12.80;90.00
26909;DHT22;14477;51.038;4.588;2023-03-01T09:24:23;13.10;90.30
26909;DHT22;14477;51.038;4.588;2023-03-01T09:26:49;13.50;89.50
26909;DHT22;14477;51.038;4.588;2023-03-01T09:29:15;13.80;90.10
26909;DHT22;14477;51.038;4.588;2023-03-01T09:31:42;14.20;89.90
26909;DHT22;14477;51.038;4.588;2023-03-01T09:34:08;14.50;89.90
26909;DHT22;14477;51.038;4.588;2023-03-01T09:36:35;14.80;89.40
26909;DHT22;14477;51.038;4.588;2023-03-01T09:39:01;15.20;87.60
26909;DHT22;14477;51.038;4.588;2023-03-01T09:41:59;15.40;87.70
26909;DHT22;14477;51.038;4.588;2023-03-01T09:44:48;15.70;82.50
26909;DHT22;14477;51.038;4.588;2023-03-01T09:47:21;16.00;80.90
26909;DHT22;14477;51.038;4.588;2023-03-01T09:50:10;16.20;83.70
26909;DHT22;14477;51.038;4.588;2023-03-01T10:01:35;17.00;79.40
26909;DHT22;14477;51.038;4.588;2023-03-01T10:09:34;17.50;76.80
26909;DHT22;14477;51.038;4.588;2023-03-01T10:12:00;17.60;80.20
26909;DHT22;14477;51.038;4.588;2023-03-01T10:17:25;17.80;73.10
26909;DHT22;14477;51.038;4.588;2023-03-01T10:19:53;17.80;80.60
26909;DHT22;14477;51.038;4.588;2023-03-01T10:22:26;17.90;79.60
26909;DHT22;14477;51.038;4.588;2023-03-01T10:25:02;17.90;74.90
26909;DHT22;14477;51.038;4.588;2023-03-01T10:32:51;17.90;72.90
26909;DHT22;14477;51.038;4.588;2023-03-01T10:35:20;17.90;75.40
26909;DHT22;14477;51.038;4.588;2023-03-01T10:38:13;18.00;75.70
26909;DHT22;14477;51.038;4.588;2023-03-01T10:40:53;18.10;70.00
26909;DHT22;14477;51.038;4.588;2023-03-01T10:43:20;18.20;63.60
26909;DHT22;14477;51.038;4.588;2023-03-01T10:45:46;18.30;75.40
26909;DHT22;14477;51.038;4.588;2023-03-01T10:48:16;18.40;76.30
26909;DHT22;14477;51.038;4.588;2023-03-01T10:50:46;18.50;74.20
26909;DHT22;14477;51.038;4.588;2023-03-01T10:53:28;18.60;74.80
26909;DHT22;14477;51.038;4.588;2023-03-01T10:56:15;18.80;74.80
26909;DHT22;14477;51.038;4.588;2023-03-01T10:59:00;18.90;70.50
26909;DHT22;14477;51.038;4.588;2023-03-01T11:01:28;19.10;72.30
26909;DHT22;14477;51.038;4.588;2023-03-01T11:06:34;19.40;73.00
26909;DHT22;14477;51.038;4.588;2023-03-01T11:09:21;19.50;73.70
26909;DHT22;14477;51.038;4.588;2023-03-01T11:11:55;19.60;68.00
26909;DHT22;14477;51.038;4.588;2023-03-01T11:14:23;19.80;70.50
26909;DHT22;14477;51.038;4.588;2023-03-01T11:16:59;20.00;73.00
26909;DHT22;14477;51.038;4.588;2023-03-01T11:19:26;20.20;68.70
26909;DHT22;14477;51.038;4.588;2023-03-01T11:24:47;20.50;70.20
26909;DHT22;14477;51.038;4.588;2023-03-01T11:32:27;20.60;65.20
26909;DHT22;14477;51.038;4.588;2023-03-01T11:35:14;20.60;66.70
26909;DHT22;14477;51.038;4.588;2023-03-01T11:43:08;20.60;64.60
26909;DHT22;14477;51.038;4.588;2023-03-01T12:02:47;21.00;64.70
26909;DHT22;14477;51.038;4.588;2023-03-01T12:19:31;20.80;60.70
26909;DHT22;14477;51.038;4.588;2023-03-01T12:28:42;21.00;59.40
26909;DHT22;14477;51.038;4.588;2023-03-01T12:31:53;21.10;57.30
26909;DHT22;14477;51.038;4.588;2023-03-01T12:42:35;21.80;60.70
26909;DHT22;14477;51.038;4.588;2023-03-01T12:45:44;21.90;59.80
26909;DHT22;14477;51.038;4.588;2023-03-01T12:51:05;22.10;56.50
26909;DHT22;14477;51.038;4.588;2023-03-01T12:53:54;22.10;58.40
26909;DHT22;14477;51.038;4.588;2023-03-01T12:56:29;22.10;58.60
26909;DHT22;14477;51.038;4.588;2023-03-01T12:59:24;22.00;54.40
26909;DHT22;14477;51.038;4.588;2023-03-01T13:02:19;21.70;54.80
26909;DHT22;14477;51.038;4.588;2023-03-01T13:05:02;21.60;53.10
26909;DHT22;14477;51.038;4.588;2023-03-01T13:10:49;21.50;51.00
26909;DHT22;14477;51.038;4.588;2023-03-01T13:13:21;21.60;56.10
26909;DHT22;14477;51.038;4.588;2023-03-01T13:15:47;21.60;56.60
26909;DHT22;14477;51.038;4.588;2023-03-01T13:20:49;21.70;56.20
26909;DHT22;14477;51.038;4.588;2023-03-01T13:34:03;22.10;56.20
26909;DHT22;14477;51.038;4.588;2023-03-01T13:39:03;22.10;57.60
26909;DHT22;14477;51.038;4.588;2023-03-01T13:46:45;22.00;52.40
26909;DHT22;14477;51.038;4.588;2023-03-01T13:49:15;22.00;56.60
26909;DHT22;14477;51.038;4.588;2023-03-01T13:51:41;22.00;53.50
26909;DHT22;14477;51.038;4.588;2023-03-01T13:54:12;21.90;54.90
26909;DHT22;14477;51.038;4.588;2023-03-01T13:56:39;21.80;54.00
26909;DHT22;14477;51.038;4.588;2023-03-01T13:59:20;21.70;54.00
26909;DHT22;14477;51.038;4.588;2023-03-01T14:02:00;21.50;50.80
26909;DHT22;14477;51.038;4.588;2023-03-01T14:04:31;21.30;48.20
26909;DHT22;14477;51.038;4.588;2023-03-01T14:07:18;21.20;53.70
26909;DHT22;14477;51.038;4.588;2023-03-01T14:09:47;21.00;49.80
26909;DHT22;14477;51.038;4.588;2023-03-01T14:15:35;20.60;50.00
26909;DHT22;14477;51.038;4.588;2023-03-01T14:18:12;20.40;49.40
26909;DHT22;14477;51.038;4.588;2023-03-01T14:20:45;20.20;52.40
26909;DHT22;14477;51.038;4.588;2023-03-01T14:23:22;20.10;51.40
26909;DHT22;14477;51.038;4.588;2023-03-01T14:25:51;19.90;52.40
26909;DHT22;14477;51.038;4.588;2023-03-01T14:28:38;19.70;51.70
26909;DHT22;14477;51.038;4.588;2023-03-01T14:33:56;19.30;49.90
26909;DHT22;14477;51.038;4.588;2023-03-01T14:36:31;19.20;50.80
26909;DHT22;14477;51.038;4.588;2023-03-01T14:38:57;19.00;52.00
26909;DHT22;14477;51.038;4.588;2023-03-01T14:41:34;19.00;53.90
26909;DHT22;14477;51.038;4.588;2023-03-01T14:44:05;19.00;52.90
26909;DHT22;14477;51.038;4.588;2023-03-01T14:46:37;18.90;52.90
26909;DHT22;14477;51.038;4.588;2023-03-01T14:49:19;18.80;52.40
26909;DHT22;14477;51.038;4.588;2023-03-01T14:51:59;18.70;49.50
26909;DHT22;14477;51.038;4.588;2023-03-01T14:54:28;18.50;49.10
26909;DHT22;14477;51.038;4.588;2023-03-01T14:57:00;18.30;52.40
26909;DHT22;14477;51.038;4.588;2023-03-01T14:59:26;18.20;50.80
26909;DHT22;14477;51.038;4.588;2023-03-01T15:01:56;18.00;51.30
26909;DHT22;14477;51.038;4.588;2023-03-01T15:04:23;17.80;51.20
26909;DHT22;14477;51.038;4.588;2023-03-01T15:06:54;17.60;51.60
26909;DHT22;14477;51.038;4.588;2023-03-01T15:09:21;17.30;51.40
26909;DHT22;14477;51.038;4.588;2023-03-01T15:11:49;17.20;51.90
26909;DHT22;14477;51.038;4.588;2023-03-01T15:14:47;17.10;52.40
26909;DHT22;14477;51.038;4.588;2023-03-01T15:17:34;16.90;50.90
26909;DHT22;14477;51.038;4.588;2023-03-01T15:20:03;16.80;50.70
26909;DHT22;14477;51.038;4.588;2023-03-01T15:22:30;16.70;52.80
26909;DHT22;14477;51.038;4.588;2023-03-01T15:24:55;16.50;52.90
26909;DHT22;14477;51.038;4.588;2023-03-01T15:27:24;16.40;52.40
26909;DHT22;14477;51.038;4.588;2023-03-01T15:29:53;16.30;52.80
26909;DHT22;14477;51.038;4.588;2023-03-01T15:32:30;16.20;52.20
26909;DHT22;14477;51.038;4.588;2023-03-01T15:34:57;16.10;52.40
26909;DHT22;14477;51.038;4.588;2023-03-01T15:37:38;16.10;52.90
26909;DHT22;14477;51.038;4.588;2023-03-01T15:40:27;16.00;52.10
26909;DHT22;14477;51.038;4.588;2023-03-01T15:43:05;15.90;53.00
26909;DHT22;14477;51.038;4.588;2023-03-01T15:45:32;15.70;53.00
26909;DHT22;14477;51.038;4.588;2023-03-01T15:48:05;15.50;53.20
26909;DHT22;14477;51.038;4.588;2023-03-01T15:50:36;15.30;52.60
26909;DHT22;14477;51.038;4.588;2023-03-01T15:53:13;15.10;52.10
26909;DHT22;14477;51.038;4.588;2023-03-01T15:55:40;15.00;52.40
26909;DHT22;14477;51.038;4.588;2023-03-01T15:58:12;14.80;53.30
26909;DHT22;14477;51.038;4.588;2023-03-01T16:00:38;14.60;52.20
26909;DHT22;14477;51.038;4.588;2023-03-01T16:03:05;14.50;52.90
26909;DHT22;14477;51.038;4.588;2023-03-01T16:05:33;14.40;52.90
26909;DHT22;14477;51.038;4.588;2023-03-01T16:08:00;14.30;52.80
26909;DHT22;14477;51.038;4.588;2023-03-01T16:10:27;14.10;52.70
26909;DHT22;14477;51.038;4.588;2023-03-01T16:12:53;14.00;53.40
26909;DHT22;14477;51.038;4.588;2023-03-01T16:15:26;13.80;53.50
26909;DHT22;14477;51.038;4.588;2023-03-01T16:17:52;13.70;53.40
26909;DHT22;14477;51.038;4.588;2023-03-01T16:20:19;13.60;53.90
26909;DHT22;14477;51.038;4.588;2023-03-01T16:22:45;13.50;53.90
26909;DHT22;14477;51.038;4.588;2023-03-01T16:25:13;13.40;54.40
26909;DHT22;14477;51.038;4.588;2023-03-01T16:27:42;13.30;53.90
26909;DHT22;14477;51.038;4.588;2023-03-01T16:30:09;13.20;53.70
26909;DHT22;14477;51.038;4.588;2023-03-01T16:32:43;13.10;54.20
26909;DHT22;14477;51.038;4.588;2023-03-01T16:35:12;13.00;53.20
26909;DHT22;14477;51.038;4.588;2023-03-01T16:37:38;12.90;54.00
26909;DHT22;14477;51.038;4.588;2023-03-01T16:40:06;12.80;54.00
26909;DHT22;14477;51.038;4.588;2023-03-01T16:42:36;12.70;53.90
26909;DHT22;14477;51.038;4.588;2023-03-01T16:45:03;12.60;53.90
26909;DHT22;14477;51.038;4.588;2023-03-01T16:47:29;12.50;54.30
26909;DHT22;14477;51.038;4.588;2023-03-01T16:49:55;12.40;54.40
26909;DHT22;14477;51.038;4.588;2023-03-01T16:52:22;12.30;54.60
26909;DHT22;14477;51.038;4.588;2023-03-01T16:54:48;12.20;54.60
26909;DHT22;14477;51.038;4.588;2023-03-01T16:57:14;12.10;54.90
26909;DHT22;14477;51.038;4.588;2023-03-01T16:59:40;12.00;54.80
26909;DHT22;14477;51.038;4.588;2023-03-01T17:02:09;11.90;54.90
26909;DHT22;14477;51.038;4.588;2023-03-01T17:04:36;11.90;54.80
26909;DHT22;14477;51.038;4.588;2023-03-01T17:07:02;11.80;55.00
26909;DHT22;14477;51.038;4.588;2023-03-01T17:09:28;11.80;55.20
26909;DHT22;14477;51.038;4.588;2023-03-01T17:11:54;11.70;55.20
26909;DHT22;14477;51.038;4.588;2023-03-01T17:14:20;11.70;55.30
26909;DHT22;14477;51.038;4.588;2023-03-01T17:16:46;11.60;55.60
26909;DHT22;14477;51.038;4.588;2023-03-01T17:19:12;11.60;55.70
26909;DHT22;14477;51.038;4.588;2023-03-01T17:21:43;11.50;55.50
26909;DHT22;14477;51.038;4.588;2023-03-01T17:24:10;11.40;55.60
26909;DHT22;14477;51.038;4.588;2023-03-01T17:26:36;11.40;55.60
26909;DHT22;14477;51.038;4.588;2023-03-01T17:29:02;11.30;55.70
26909;DHT22;14477;51.038;4.588;2023-03-01T17:31:31;11.20;55.90
26909;DHT22;14477;51.038;4.588;2023-03-01T17:33:57;11.20;56.70
26909;DHT22;14477;51.038;4.588;2023-03-01T17:36:22;11.10;56.00
26909;DHT22;14477;51.038;4.588;2023-03-01T17:38:48;11.10;56.10
26909;DHT22;14477;51.038;4.588;2023-03-01T17:41:14;11.00;56.40
26909;DHT22;14477;51.038;4.588;2023-03-01T17:43:44;10.90;56.50
26909;DHT22;14477;51.038;4.588;2023-03-01T17:46:10;10.90;56.60
26909;DHT22;14477;51.038;4.588;2023-03-01T17:48:37;10.80;56.70
26909;DHT22;14477;51.038;4.588;2023-03-01T17:51:07;10.80;56.70
26909;DHT22;14477;51.038;4.588;2023-03-01T17:53:34;10.70;56.60
26909;DHT22;14477;51.038;4.588;2023-03-01T17:56:03;10.60;56.80
26909;DHT22;14477;51.038;4.588;2023-03-01T17:58:30;10.60;56.80
26909;DHT22;14477;51.038;4.588;2023-03-01T18:01:12;10.50;56.80
26909;DHT22;14477;51.038;4.588;2023-03-01T18:03:40;10.40;56.70